sensor_id;sensor_type;location;lat;lon;timestamp;pressure;altitude;pressure_sealevel;temperature;humidity
46583;BME280;32309;48.858;8.252;2023-02-18T00:00:34;101314.44;;;11.22;81.47
46583;BME280;32309;48.858;8.252;2023-02-18T00:02:34;101322.22;;;11.22;81.35
46583;BME280;32309;48.858;8.252;2023-02-18T00:04:34;101321.31;;;11.23;81.54
46583;BME280;32309;48.858;8.252;2023-02-18T00:06:35;101318.72;;;11.23;80.79
46583;BME280;32309;48.858;8.252;2023-02-18T00:08:35;101317.91;;;11.21;81.38
46583;BME280;32309;48.858;8.252;2023-02-18T00:10:35;101326.50;;;11.23;81.40
46583;BME280;32309;48.858;8.252;2023-02-18T00:12:36;101323.91;;;11.23;81.01
46583;BME280;32309;48.858;8.252;2023-02-18T00:14:37;101325.69;;;11.21;81.51
46583;BME280;32309;48.858;8.252;2023-02-18T00:16:37;101322.22;;;11.22;80.95
46583;BME280;32309;48.858;8.252;2023-02-18T00:18:38;101313.59;;;11.22;81.48
46583;BME280;32309;48.858;8.252;2023-02-18T00:20:39;101322.28;;;11.21;81.36
46583;BME280;32309;48.858;8.252;2023-02-18T00:22:39;101320.50;;;11.21;81.49
46583;BME280;32309;48.858;8.252;2023-02-18T00:24:39;101308.34;;;11.23;80.70
46583;BME280;32309;48.858;8.252;2023-02-18T00:26:40;101301.38;;;11.24;80.38
46583;BME280;32309;48.858;8.252;2023-02-18T00:28:41;101295.44;;;11.22;80.95
46583;BME280;32309;48.858;8.252;2023-02-18T00:30:41;101295.44;;;11.22;80.88
46583;BME280;32309;48.858;8.252;2023-02-18T00:32:42;101298.84;;;11.22;80.89
46583;BME280;32309;48.858;8.252;2023-02-18T00:34:42;101311.03;;;11.20;81.30
46583;BME280;32309;48.858;8.252;2023-02-18T00:36:43;101307.53;;;11.21;81.17
46583;BME280;32309;48.858;8.252;2023-02-18T00:38:44;101305.03;;;11.20;80.60
46583;BME280;32309;48.858;8.252;2023-02-18T00:40:46;101294.56;;;11.21;81.49
46583;BME280;32309;48.858;8.252;2023-02-18T00:42:46;101297.22;;;11.20;81.44
46583;BME280;32309;48.858;8.252;2023-02-18T00:44:47;101287.75;;;11.19;81.01
46583;BME280;32309;48.858;8.252;2023-02-18T00:46:47;101292.03;;;11.20;80.99
46583;BME280;32309;48.858;8.252;2023-02-18T00:48:48;101282.56;;;11.19;80.94
46583;BME280;32309;48.858;8.252;2023-02-18T00:50:48;101287.75;;;11.19;81.28
46583;BME280;32309;48.858;8.252;2023-02-18T00:52:49;101285.16;;;11.19;80.82
46583;BME280;32309;48.858;8.252;2023-02-18T00:54:49;101284.25;;;11.20;80.67
46583;BME280;32309;48.858;8.252;2023-02-18T00:56:49;101295.53;;;11.19;81.29
46583;BME280;32309;48.858;8.252;2023-02-18T00:58:50;101278.25;;;11.19;80.71
46583;BME280;32309;48.858;8.252;2023-02-18T01:00:51;101281.66;;;11.20;81.01
46583;BME280;32309;48.858;8.252;2023-02-18T01:02:51;101289.44;;;11.20;81.11
46583;BME280;32309;48.858;8.252;2023-02-18T01:04:53;101278.28;;;11.18;80.77
46583;BME280;32309;48.858;8.252;2023-02-18T01:06:53;101280.13;;;11.15;80.90
46583;BME280;32309;48.858;8.252;2023-02-18T01:08:54;101279.13;;;11.18;80.53
46583;BME280;32309;48.858;8.252;2023-02-18T01:10:55;101281.75;;;11.18;80.15
46583;BME280;32309;48.858;8.252;2023-02-18T01:12:56;101285.16;;;11.19;80.83
46583;BME280;32309;48.858;8.252;2023-02-18T01:14:57;101285.22;;;11.17;80.77
46583;BME280;32309;48.858;8.252;2023-02-18T01:16:57;101278.28;;;11.18;80.65
46583;BME280;32309;48.858;8.252;2023-02-18T01:18:57;101280.03;;;11.17;80.96
46583;BME280;32309;48.858;8.252;2023-02-18T01:20:58;101280.13;;;11.15;80.86
46583;BME280;32309;48.858;8.252;2023-02-18T01:22:58;101277.53;;;11.15;81.14
46583;BME280;32309;48.858;8.252;2023-02-18T01:24:59;101276.72;;;11.13;81.45
46583;BME280;32309;48.858;8.252;2023-02-18T01:26:59;101273.38;;;11.11;80.70
46583;BME280;32309;48.858;8.252;2023-02-18T01:28:59;101271.63;;;11.12;80.98
46583;BME280;32309;48.858;8.252;2023-02-18T01:31:03;101279.41;;;11.12;81.17
46583;BME280;32309;48.858;8.252;2023-02-18T01:33:06;101289.84;;;11.10;81.31
46583;BME280;32309;48.858;8.252;2023-02-18T01:35:09;101280.38;;;11.09;81.78
46583;BME280;32309;48.858;8.252;2023-02-18T01:37:11;101268.25;;;11.10;81.41
46583;BME280;32309;48.858;8.252;2023-02-18T01:39:12;101271.84;;;11.07;81.82
46583;BME280;32309;48.858;8.252;2023-02-18T01:41:13;101273.50;;;11.08;81.44
46583;BME280;32309;48.858;8.252;2023-02-18T01:43:13;101273.56;;;11.07;81.90
46583;BME280;32309;48.858;8.252;2023-02-18T01:47:33;101269.28;;;11.06;82.07
46583;BME280;32309;48.858;8.252;2023-02-18T01:49:34;101270.25;;;11.03;82.05
46583;BME280;32309;48.858;8.252;2023-02-18T01:51:36;101264.22;;;11.03;81.73
46583;BME280;32309;48.858;8.252;2023-02-18T01:55:43;101252.31;;;10.98;82.17
46583;BME280;32309;48.858;8.252;2023-02-18T01:57:46;101259.19;;;10.99;82.07
46583;BME280;32309;48.858;8.252;2023-02-18T02:00:20;101254.06;;;10.98;82.67
46583;BME280;32309;48.858;8.252;2023-02-18T02:02:16;101257.66;;;10.95;82.96
46583;BME280;32309;48.858;8.252;2023-02-18T02:04:20;101255.09;;;10.94;82.39
46583;BME280;32309;48.858;8.252;2023-02-18T02:06:21;101259.44;;;10.93;82.97
46583;BME280;32309;48.858;8.252;2023-02-18T02:08:23;101265.47;;;10.94;82.87
46583;BME280;32309;48.858;8.252;2023-02-18T02:10:23;101270.66;;;10.94;82.79
46583;BME280;32309;48.858;8.252;2023-02-18T02:12:40;101265.53;;;10.92;82.35
46583;BME280;32309;48.858;8.252;2023-02-18T02:17:03;101262.88;;;10.94;83.09
46583;BME280;32309;48.858;8.252;2023-02-18T02:38:21;101263.81;;;10.93;83.24
46583;BME280;32309;48.858;8.252;2023-02-18T02:40:35;101258.72;;;10.90;82.99
46583;BME280;32309;48.858;8.252;2023-02-18T02:43:05;101263.16;;;10.88;82.79
46583;BME280;32309;48.858;8.252;2023-02-18T02:45:23;101259.66;;;10.89;82.82
46583;BME280;32309;48.858;8.252;2023-02-18T02:47:48;101259.78;;;10.86;83.98
46583;BME280;32309;48.858;8.252;2023-02-18T02:50:13;101252.06;;;10.84;83.92
46583;BME280;32309;48.858;8.252;2023-02-18T02:52:23;101245.06;;;10.86;83.86
46583;BME280;32309;48.858;8.252;2023-02-18T02:54:28;101246.03;;;10.84;83.93
46583;BME280;32309;48.858;8.252;2023-02-18T02:56:29;101238.38;;;10.80;84.06
46583;BME280;32309;48.858;8.252;2023-02-18T02:58:29;101235.72;;;10.82;84.05
46583;BME280;32309;48.858;8.252;2023-02-18T03:00:55;101227.94;;;10.82;83.71
46583;BME280;32309;48.858;8.252;2023-02-18T03:03:16;101227.09;;;10.81;84.44
46583;BME280;32309;48.858;8.252;2023-02-18T03:05:29;101220.22;;;10.80;84.43
46583;BME280;32309;48.858;8.252;2023-02-18T03:07:51;101207.25;;;10.80;83.63
46583;BME280;32309;48.858;8.252;2023-02-18T03:12:34;101222.81;;;10.80;84.42
46583;BME280;32309;48.858;8.252;2023-02-18T03:15:00;101200.44;;;10.78;84.45
46583;BME280;32309;48.858;8.252;2023-02-18T03:17:14;101205.63;;;10.78;84.92
46583;BME280;32309;48.858;8.252;2023-02-18T03:21:32;101194.50;;;10.76;85.17
46583;BME280;32309;48.858;8.252;2023-02-18T03:23:55;101198.00;;;10.75;84.98
46583;BME280;32309;48.858;8.252;2023-02-18T03:26:26;101191.06;;;10.75;84.72
46583;BME280;32309;48.858;8.252;2023-02-18T03:28:30;101186.72;;;10.76;84.18
46583;BME280;32309;48.858;8.252;2023-02-18T03:30:35;101184.97;;;10.76;84.24
46583;BME280;32309;48.858;8.252;2023-02-18T03:32:40;101181.47;;;10.77;83.98
46583;BME280;32309;48.858;8.252;2023-02-18T03:34:42;101187.56;;;10.76;84.63
46583;BME280;32309;48.858;8.252;2023-02-18T03:36:46;101186.72;;;10.76;84.88
46583;BME280;32309;48.858;8.252;2023-02-18T03:39:06;101190.22;;;10.75;85.35
46583;BME280;32309;48.858;8.252;2023-02-18T03:41:10;101181.53;;;10.76;83.65
46583;BME280;32309;48.858;8.252;2023-02-18T03:43:10;101177.25;;;10.75;84.24
46583;BME280;32309;48.858;8.252;2023-02-18T03:45:10;101184.22;;;10.74;85.03
46583;BME280;32309;48.858;8.252;2023-02-18T03:47:11;101175.56;;;10.74;84.75
46583;BME280;32309;48.858;8.252;2023-02-18T03:49:12;101172.22;;;10.72;84.57
46583;BME280;32309;48.858;8.252;2023-02-18T03:51:12;101175.66;;;10.72;84.42
46583;BME280;32309;48.858;8.252;2023-02-18T03:53:13;101171.28;;;10.73;85.45
46583;BME280;32309;48.858;8.252;2023-02-18T03:55:13;101171.28;;;10.73;84.75
46583;BME280;32309;48.858;8.252;2023-02-18T03:57:13;101168.75;;;10.71;85.40
46583;BME280;32309;48.858;8.252;2023-02-18T03:59:13;101185.28;;;10.69;86.01
46583;BME280;32309;48.858;8.252;2023-02-18T04:01:14;101176.69;;;10.68;85.90
46583;BME280;32309;48.858;8.252;2023-02-18T04:03:15;101184.41;;;10.70;85.75
46583;BME280;32309;48.858;8.252;2023-02-18T04:05:15;101184.41;;;10.70;85.69
46583;BME280;32309;48.858;8.252;2023-02-18T04:07:15;101175.78;;;10.69;85.66
46583;BME280;32309;48.858;8.252;2023-02-18T04:09:16;101171.34;;;10.71;85.56
46583;BME280;32309;48.858;8.252;2023-02-18T04:11:16;101169.66;;;10.70;85.10
46583;BME280;32309;48.858;8.252;2023-02-18T04:13:17;101174.03;;;10.70;84.89
46583;BME280;32309;48.858;8.252;2023-02-18T04:15:17;101164.47;;;10.70;84.93
46583;BME280;32309;48.858;8.252;2023-02-18T04:17:18;101170.59;;;10.69;85.34
46583;BME280;32309;48.858;8.252;2023-02-18T04:19:19;101176.63;;;10.70;85.29
46583;BME280;32309;48.858;8.252;2023-02-18T04:21:19;101162.81;;;10.69;85.62
46583;BME280;32309;48.858;8.252;2023-02-18T04:23:19;101170.47;;;10.72;85.33
46583;BME280;32309;48.858;8.252;2023-02-18T04:25:20;101179.13;;;10.71;85.03
46583;BME280;32309;48.858;8.252;2023-02-18T04:27:20;101181.72;;;10.71;85.89
46583;BME280;32309;48.858;8.252;2023-02-18T04:29:20;101174.81;;;10.72;85.59
46583;BME280;32309;48.858;8.252;2023-02-18T04:31:21;101179.13;;;10.71;85.43
46583;BME280;32309;48.858;8.252;2023-02-18T04:33:21;101178.22;;;10.72;85.71
46583;BME280;32309;48.858;8.252;2023-02-18T04:35:21;101178.31;;;10.71;85.82
46583;BME280;32309;48.858;8.252;2023-02-18T04:37:22;101181.66;;;10.73;84.83
46583;BME280;32309;48.858;8.252;2023-02-18T04:39:22;101174.03;;;10.70;85.86
46583;BME280;32309;48.858;8.252;2023-02-18T04:41:22;101180.91;;;10.71;85.05
46583;BME280;32309;48.858;8.252;2023-02-18T04:43:23;101180.00;;;10.72;85.63
46583;BME280;32309;48.858;8.252;2023-02-18T04:45:23;101180.91;;;10.71;85.56
46583;BME280;32309;48.858;8.252;2023-02-18T04:47:24;101165.41;;;10.69;85.84
46583;BME280;32309;48.858;8.252;2023-02-18T04:49:24;101161.84;;;10.72;85.83
46583;BME280;32309;48.858;8.252;2023-02-18T04:51:25;101155.03;;;10.69;85.48
46583;BME280;32309;48.858;8.252;2023-02-18T04:53:25;101158.47;;;10.70;85.58
46583;BME280;32309;48.858;8.252;2023-02-18T04:55:25;101149.88;;;10.69;86.29
46583;BME280;32309;48.858;8.252;2023-02-18T04:57:25;101156.78;;;10.69;85.60
46583;BME280;32309;48.858;8.252;2023-02-18T04:59:26;101146.41;;;10.69;85.77
46583;BME280;32309;48.858;8.252;2023-02-18T05:01:26;101149.88;;;10.69;85.65
46583;BME280;32309;48.858;8.252;2023-02-18T05:03:27;101143.81;;;10.69;86.57
46583;BME280;32309;48.858;8.252;2023-02-18T05:05:28;101159.38;;;10.69;86.87
46583;BME280;32309;48.858;8.252;2023-02-18T05:07:28;101156.03;;;10.67;86.37
46583;BME280;32309;48.858;8.252;2023-02-18T05:09:29;101156.91;;;10.65;86.58
46583;BME280;32309;48.858;8.252;2023-02-18T05:11:29;101161.13;;;10.68;86.25
46583;BME280;32309;48.858;8.252;2023-02-18T05:13:29;101156.84;;;10.67;85.94
46583;BME280;32309;48.858;8.252;2023-02-18T05:15:29;101156.78;;;10.69;86.22
46583;BME280;32309;48.858;8.252;2023-02-18T05:17:30;101157.69;;;10.68;85.48
46583;BME280;32309;48.858;8.252;2023-02-18T05:19:30;101170.66;;;10.68;85.95
46583;BME280;32309;48.858;8.252;2023-02-18T05:21:30;101153.34;;;10.68;85.51
46583;BME280;32309;48.858;8.252;2023-02-18T05:23:30;101153.28;;;10.70;85.98
46583;BME280;32309;48.858;8.252;2023-02-18T05:25:31;101142.91;;;10.70;85.53
46583;BME280;32309;48.858;8.252;2023-02-18T05:27:31;101130.03;;;10.68;85.48
46583;BME280;32309;48.858;8.252;2023-02-18T05:29:32;101130.03;;;10.68;85.47
46583;BME280;32309;48.858;8.252;2023-02-18T05:31:32;101136.94;;;10.68;86.15
46583;BME280;32309;48.858;8.252;2023-02-18T05:33:32;101132.63;;;10.68;84.91
46583;BME280;32309;48.858;8.252;2023-02-18T05:35:33;101135.13;;;10.70;85.33
46583;BME280;32309;48.858;8.252;2023-02-18T05:37:33;101122.25;;;10.68;85.86
46583;BME280;32309;48.858;8.252;2023-02-18T05:39:33;101123.06;;;10.69;85.45
46583;BME280;32309;48.858;8.252;2023-02-18T05:41:34;101131.72;;;10.69;85.93
46583;BME280;32309;48.858;8.252;2023-02-18T05:43:34;101129.16;;;10.68;85.61
46583;BME280;32309;48.858;8.252;2023-02-18T05:45:54;101131.72;;;10.69;85.65
46583;BME280;32309;48.858;8.252;2023-02-18T05:47:54;101125.59;;;10.70;85.67
46583;BME280;32309;48.858;8.252;2023-02-18T05:49:55;101120.41;;;10.70;85.67
46583;BME280;32309;48.858;8.252;2023-02-18T05:51:55;101137.66;;;10.71;85.60
46583;BME280;32309;48.858;8.252;2023-02-18T05:53:56;101131.56;;;10.72;85.65
46583;BME280;32309;48.858;8.252;2023-02-18T05:55:56;101125.47;;;10.73;85.07
46583;BME280;32309;48.858;8.252;2023-02-18T05:57:56;101132.41;;;10.73;85.12
46583;BME280;32309;48.858;8.252;2023-02-18T05:59:57;101133.25;;;10.73;85.37
46583;BME280;32309;48.858;8.252;2023-02-18T06:01:57;101131.56;;;10.72;85.19
46583;BME280;32309;48.858;8.252;2023-02-18T06:03:58;101131.56;;;10.72;84.76
46583;BME280;32309;48.858;8.252;2023-02-18T06:05:58;101134.09;;;10.74;85.24
46583;BME280;32309;48.858;8.252;2023-02-18T06:07:58;101131.56;;;10.72;85.10
46583;BME280;32309;48.858;8.252;2023-02-18T06:09:58;101120.28;;;10.73;84.20
46583;BME280;32309;48.858;8.252;2023-02-18T06:11:59;101120.28;;;10.73;85.18
46583;BME280;32309;48.858;8.252;2023-02-18T06:13:59;101120.28;;;10.73;84.44
46583;BME280;32309;48.858;8.252;2023-02-18T06:16:00;101114.19;;;10.74;84.45
46583;BME280;32309;48.858;8.252;2023-02-18T06:18:00;101121.03;;;10.75;84.61
46583;BME280;32309;48.858;8.252;2023-02-18T06:20:00;101117.63;;;10.75;84.28
46583;BME280;32309;48.858;8.252;2023-02-18T06:22:02;101124.34;;;10.79;84.20
46583;BME280;32309;48.858;8.252;2023-02-18T06:24:03;101114.81;;;10.79;83.56
46583;BME280;32309;48.858;8.252;2023-02-18T06:26:04;101121.69;;;10.80;83.28
46583;BME280;32309;48.858;8.252;2023-02-18T06:28:04;101125.97;;;10.81;83.66
46583;BME280;32309;48.858;8.252;2023-02-18T06:30:05;101122.41;;;10.84;83.65
46583;BME280;32309;48.858;8.252;2023-02-18T06:32:05;101119.72;;;10.86;83.29
46583;BME280;32309;48.858;8.252;2023-02-18T06:34:05;101124.84;;;10.87;82.61
46583;BME280;32309;48.858;8.252;2023-02-18T06:36:06;101114.47;;;10.87;82.76
46583;BME280;32309;48.858;8.252;2023-02-18T06:38:10;101119.63;;;10.89;82.25
46583;BME280;32309;48.858;8.252;2023-02-18T06:40:10;101116.16;;;10.88;82.45
46583;BME280;32309;48.858;8.252;2023-02-18T06:42:11;101113.41;;;10.91;82.52
46583;BME280;32309;48.858;8.252;2023-02-18T06:44:11;101113.38;;;10.93;82.88
46583;BME280;32309;48.858;8.252;2023-02-18T06:46:14;101122.81;;;10.94;82.60
46583;BME280;32309;48.858;8.252;2023-02-18T06:48:14;101121.97;;;10.93;82.19
46583;BME280;32309;48.858;8.252;2023-02-18T06:50:18;101125.41;;;10.94;82.13
46583;BME280;32309;48.858;8.252;2023-02-18T06:52:19;101124.50;;;10.95;82.19
46583;BME280;32309;48.858;8.252;2023-02-18T06:54:19;101122.75;;;10.95;81.88
46583;BME280;32309;48.858;8.252;2023-02-18T06:56:19;101124.41;;;10.96;81.41
46583;BME280;32309;48.858;8.252;2023-02-18T06:58:20;101124.38;;;10.98;81.19
46583;BME280;32309;48.858;8.252;2023-02-18T07:00:20;101127.81;;;10.98;81.67
46583;BME280;32309;48.858;8.252;2023-02-18T07:02:21;101127.66;;;11.02;81.07
46583;BME280;32309;48.858;8.252;2023-02-18T07:04:21;101129.34;;;11.03;81.14
46583;BME280;32309;48.858;8.252;2023-02-18T07:06:22;101128.44;;;11.04;81.12
46583;BME280;32309;48.858;8.252;2023-02-18T07:08:22;101121.38;;;11.07;80.66
46583;BME280;32309;48.858;8.252;2023-02-18T07:10:22;101116.19;;;11.07;81.07
46583;BME280;32309;48.858;8.252;2023-02-18T07:12:23;101112.53;;;11.11;81.29
46583;BME280;32309;48.858;8.252;2023-02-18T07:14:23;101102.97;;;11.12;80.55
46583;BME280;32309;48.858;8.252;2023-02-18T07:16:24;101102.06;;;11.13;80.48
46583;BME280;32309;48.858;8.252;2023-02-18T07:18:24;101098.50;;;11.15;80.71
46583;BME280;32309;48.858;8.252;2023-02-18T07:20:24;101106.34;;;11.14;79.67
46583;BME280;32309;48.858;8.252;2023-02-18T07:22:25;101101.22;;;11.12;80.92
46583;BME280;32309;48.858;8.252;2023-02-18T07:24:26;101102.81;;;11.15;80.30
46583;BME280;32309;48.858;8.252;2023-02-18T07:26:26;101106.19;;;11.17;79.70
46583;BME280;32309;48.858;8.252;2023-02-18T07:28:27;101096.59;;;11.19;80.78
46583;BME280;32309;48.858;8.252;2023-02-18T07:30:27;101089.66;;;11.20;80.32
46583;BME280;32309;48.858;8.252;2023-02-18T07:32:27;101102.47;;;11.23;79.90
46583;BME280;32309;48.858;8.252;2023-02-18T07:34:27;101097.34;;;11.21;80.28
46583;BME280;32309;48.858;8.252;2023-02-18T07:36:28;101089.56;;;11.21;80.46
46583;BME280;32309;48.858;8.252;2023-02-18T07:38:28;101098.13;;;11.23;80.62
46583;BME280;32309;48.858;8.252;2023-02-18T07:40:29;101087.75;;;11.23;80.30
46583;BME280;32309;48.858;8.252;2023-02-18T07:42:29;101097.19;;;11.24;80.61
46583;BME280;32309;48.858;8.252;2023-02-18T07:44:30;101094.69;;;11.23;80.54
46583;BME280;32309;48.858;8.252;2023-02-18T07:46:30;101094.75;;;11.21;80.44
46583;BME280;32309;48.858;8.252;2023-02-18T07:48:30;101077.50;;;11.20;80.33
46583;BME280;32309;48.858;8.252;2023-02-18T07:50:31;101092.25;;;11.20;81.29
46583;BME280;32309;48.858;8.252;2023-02-18T07:52:34;101089.72;;;11.18;80.37
46583;BME280;32309;48.858;8.252;2023-02-18T07:54:34;101093.03;;;11.22;80.66
46583;BME280;32309;48.858;8.252;2023-02-18T07:56:34;101093.06;;;11.20;80.53
46583;BME280;32309;48.858;8.252;2023-02-18T07:58:35;101094.84;;;11.20;80.99
46583;BME280;32309;48.858;8.252;2023-02-18T08:00:37;101101.63;;;11.22;81.09
46583;BME280;32309;48.858;8.252;2023-02-18T08:02:37;101104.22;;;11.22;81.13
46583;BME280;32309;48.858;8.252;2023-02-18T08:04:38;101110.13;;;11.26;80.61
46583;BME280;32309;48.858;8.252;2023-02-18T08:06:39;101105.78;;;11.26;80.27
46583;BME280;32309;48.858;8.252;2023-02-18T08:08:41;101119.53;;;11.28;80.29
46583;BME280;32309;48.858;8.252;2023-02-18T08:10:41;101095.19;;;11.31;79.99
46583;BME280;32309;48.858;8.252;2023-02-18T08:12:42;101101.28;;;11.30;80.60
46583;BME280;32309;48.858;8.252;2023-02-18T08:14:42;101108.09;;;11.32;80.45
46583;BME280;32309;48.858;8.252;2023-02-18T08:16:43;101111.50;;;11.33;79.95
46583;BME280;32309;48.858;8.252;2023-02-18T08:18:43;101112.28;;;11.35;80.26
46583;BME280;32309;48.858;8.252;2023-02-18T08:20:44;101091.56;;;11.33;80.19
46583;BME280;32309;48.858;8.252;2023-02-18T08:22:46;101102.81;;;11.34;80.06
46583;BME280;32309;48.858;8.252;2023-02-18T08:24:46;101094.88;;;11.37;79.58
46583;BME280;32309;48.858;8.252;2023-02-18T08:26:46;101092.16;;;11.40;79.12
46583;BME280;32309;48.858;8.252;2023-02-18T08:28:47;101086.03;;;11.41;79.27
46583;BME280;32309;48.858;8.252;2023-02-18T08:30:48;101095.50;;;11.42;78.32
46583;BME280;32309;48.858;8.252;2023-02-18T08:32:49;101088.41;;;11.46;78.05
46583;BME280;32309;48.858;8.252;2023-02-18T08:34:50;101090.94;;;11.47;78.96
46583;BME280;32309;48.858;8.252;2023-02-18T08:36:50;101091.72;;;11.49;78.81
46583;BME280;32309;48.858;8.252;2023-02-18T08:38:50;101096.03;;;11.49;78.34
46583;BME280;32309;48.858;8.252;2023-02-18T08:40:59;101096.94;;;11.48;79.17
46583;BME280;32309;48.858;8.252;2023-02-18T08:43:04;101093.44;;;11.49;79.25
46583;BME280;32309;48.858;8.252;2023-02-18T08:45:05;101096.19;;;11.46;79.64
46583;BME280;32309;48.858;8.252;2023-02-18T08:47:06;101083.22;;;11.46;79.67
46583;BME280;32309;48.858;8.252;2023-02-18T08:49:06;101090.84;;;11.49;79.84
46583;BME280;32309;48.858;8.252;2023-02-18T08:51:24;101096.66;;;11.54;79.77
46583;BME280;32309;48.858;8.252;2023-02-18T08:53:25;101092.25;;;11.56;79.48
46583;BME280;32309;48.858;8.252;2023-02-18T08:55:25;101096.28;;;11.62;79.65
46583;BME280;32309;48.858;8.252;2023-02-18T08:57:26;101096.28;;;11.62;79.16
46583;BME280;32309;48.858;8.252;2023-02-18T08:59:27;101094.47;;;11.64;78.74
46583;BME280;32309;48.858;8.252;2023-02-18T09:01:27;101090.03;;;11.66;78.57
46583;BME280;32309;48.858;8.252;2023-02-18T09:03:28;101091.72;;;11.67;78.17
46583;BME280;32309;48.858;8.252;2023-02-18T09:05:28;101094.22;;;11.69;78.34
46583;BME280;32309;48.858;8.252;2023-02-18T09:07:28;101091.56;;;11.70;77.99
46583;BME280;32309;48.858;8.252;2023-02-18T09:09:29;101087.97;;;11.73;77.87
46583;BME280;32309;48.858;8.252;2023-02-18T09:11:29;101091.44;;;11.73;77.84
46583;BME280;32309;48.858;8.252;2023-02-18T09:13:30;101099.97;;;11.75;77.03
46583;BME280;32309;48.858;8.252;2023-02-18T09:15:32;101087.75;;;11.77;77.18
46583;BME280;32309;48.858;8.252;2023-02-18T09:17:32;101081.56;;;11.80;76.88
46583;BME280;32309;48.858;8.252;2023-02-18T09:19:32;101085.63;;;11.86;76.90
46583;BME280;32309;48.858;8.252;2023-02-18T09:21:33;101077.66;;;11.89;76.33
46583;BME280;32309;48.858;8.252;2023-02-18T09:23:33;101076.66;;;11.91;76.94
46583;BME280;32309;48.858;8.252;2023-02-18T09:25:33;101069.59;;;11.95;76.61
46583;BME280;32309;48.858;8.252;2023-02-18T09:27:34;101072.13;;;11.96;76.54
46583;BME280;32309;48.858;8.252;2023-02-18T09:29:36;101065.84;;;12.01;76.09
46583;BME280;32309;48.858;8.252;2023-02-18T09:31:38;101071.66;;;12.06;76.18
46583;BME280;32309;48.858;8.252;2023-02-18T09:33:39;101080.22;;;12.08;76.17
46583;BME280;32309;48.858;8.252;2023-02-18T09:35:42;101075.69;;;12.11;75.56
46583;BME280;32309;48.858;8.252;2023-02-18T09:37:42;101075.63;;;12.13;75.54
46583;BME280;32309;48.858;8.252;2023-02-18T09:39:42;101072.03;;;12.15;75.97
46583;BME280;32309;48.858;8.252;2023-02-18T09:41:44;101072.78;;;12.18;75.88
46583;BME280;32309;48.858;8.252;2023-02-18T09:43:47;101078.84;;;12.18;76.15
46583;BME280;32309;48.858;8.252;2023-02-18T09:45:51;101087.75;;;12.12;75.96
46583;BME280;32309;48.858;8.252;2023-02-18T09:47:52;101076.72;;;12.09;76.07
46583;BME280;32309;48.858;8.252;2023-02-18T09:49:54;101080.97;;;12.10;75.69
46583;BME280;32309;48.858;8.252;2023-02-18T09:52:05;101079.22;;;12.10;75.87
46583;BME280;32309;48.858;8.252;2023-02-18T09:54:11;101089.44;;;12.13;75.85
46583;BME280;32309;48.858;8.252;2023-02-18T09:56:22;101073.03;;;12.13;75.65
46583;BME280;32309;48.858;8.252;2023-02-18T09:58:29;101074.78;;;12.12;75.27
46583;BME280;32309;48.858;8.252;2023-02-18T10:00:36;101068.91;;;12.09;75.52
46583;BME280;32309;48.858;8.252;2023-02-18T10:02:48;101064.72;;;12.06;75.92
46583;BME280;32309;48.858;8.252;2023-02-18T10:04:53;101072.56;;;12.05;75.46
46583;BME280;32309;48.858;8.252;2023-02-18T10:06:54;101081.94;;;12.07;75.39
46583;BME280;32309;48.858;8.252;2023-02-18T10:08:57;101071.66;;;12.06;75.98
46583;BME280;32309;48.858;8.252;2023-02-18T10:11:00;101068.97;;;12.07;75.59
46583;BME280;32309;48.858;8.252;2023-02-18T10:13:00;101070.56;;;12.10;76.31
46583;BME280;32309;48.858;8.252;2023-02-18T10:15:06;101074.94;;;12.09;75.01
46583;BME280;32309;48.858;8.252;2023-02-18T10:17:07;101079.06;;;12.13;75.22
46583;BME280;32309;48.858;8.252;2023-02-18T10:19:24;101068.75;;;12.12;74.82
46583;BME280;32309;48.858;8.252;2023-02-18T10:21:29;101085.03;;;12.15;75.25
46583;BME280;32309;48.858;8.252;2023-02-18T10:23:32;101083.09;;;12.19;74.99
46583;BME280;32309;48.858;8.252;2023-02-18T10:25:37;101083.16;;;12.18;74.10
46583;BME280;32309;48.858;8.252;2023-02-18T10:27:43;101092.75;;;12.17;74.74
46583;BME280;32309;48.858;8.252;2023-02-18T10:29:47;101079.75;;;12.17;74.67
46583;BME280;32309;48.858;8.252;2023-02-18T10:31:52;101098.63;;;12.21;74.77
46583;BME280;32309;48.858;8.252;2023-02-18T10:38:48;101091.41;;;12.26;74.94
46583;BME280;32309;48.858;8.252;2023-02-18T10:41:07;101092.19;;;12.28;75.08
46583;BME280;32309;48.858;8.252;2023-02-18T10:43:26;101088.59;;;12.30;74.52
46583;BME280;32309;48.858;8.252;2023-02-18T10:45:50;101097.13;;;12.32;74.84
46583;BME280;32309;48.858;8.252;2023-02-18T10:48:06;101083.22;;;12.34;74.18
46583;BME280;32309;48.858;8.252;2023-02-18T10:50:37;101084.22;;;12.31;74.60
46583;BME280;32309;48.858;8.252;2023-02-18T10:52:41;101073.69;;;12.34;74.87
46583;BME280;32309;48.858;8.252;2023-02-18T10:56:58;101074.41;;;12.36;74.41
46583;BME280;32309;48.858;8.252;2023-02-18T10:59:01;101061.28;;;12.39;74.29
46583;BME280;32309;48.858;8.252;2023-02-18T11:01:21;101068.75;;;12.45;74.26
46583;BME280;32309;48.858;8.252;2023-02-18T11:03:23;101070.19;;;12.51;74.14
46583;BME280;32309;48.858;8.252;2023-02-18T11:05:26;101056.72;;;12.60;73.38
46583;BME280;32309;48.858;8.252;2023-02-18T11:07:33;101060.66;;;12.68;72.88
46583;BME280;32309;48.858;8.252;2023-02-18T11:09:39;101050.66;;;12.76;72.69
46583;BME280;32309;48.858;8.252;2023-02-18T11:11:41;101052.84;;;12.84;72.41
46583;BME280;32309;48.858;8.252;2023-02-18T11:13:42;101060.56;;;12.85;72.69
46583;BME280;32309;48.858;8.252;2023-02-18T11:15:53;101059.91;;;12.81;71.60
46583;BME280;32309;48.858;8.252;2023-02-18T11:18:26;101044.44;;;12.78;71.77
46583;BME280;32309;48.858;8.252;2023-02-18T11:20:34;101048.06;;;12.76;71.35